Time;durP1;ratioP1;P1;durP2;ratioP2;P2;SDS_P1;SDS_P2;PMS_P1;PMS_P2;Temp;Humidity;BMP_temperature;BMP_pressure;BME280_temperature;BME280_humidity;BME280_pressure;Samples;Min_cycle;Max_cycle;Signal;HPM_P1;HPM_P2
2022/05/14 00:00:33;;;;;;;12.48;5.10;;;;;;;11.70;68.36;101976.28;5006495;28;20426;-61
2022/05/14 00:02:58;;;;;;;11.73;4.63;;;;;;;11.73;69.10;101972.63;4988989;28;20056;-59
2022/05/14 00:05:25;;;;;;;12.57;4.78;;;;;;;11.62;68.89;101953.41;4965949;28;20058;-59
2022/05/14 00:07:51;;;;;;;11.20;4.82;;;;;;;11.75;68.75;101965.53;4973762;28;20069;-59
2022/05/14 00:10:18;;;;;;;12.15;4.93;;;;;;;11.70;69.49;101963.28;4986323;28;20108;-60
2022/05/14 00:15:27;;;;;;;10.15;4.32;;;;;;;11.71;68.92;101962.34;4986360;28;20863;-59
2022/05/14 00:17:54;;;;;;;9.63;4.32;;;;;;;11.70;68.47;101958.91;4986547;28;20030;-59
2022/05/14 00:20:23;;;;;;;10.38;4.35;;;;;;;11.52;68.42;101967.94;4967027;28;20031;-59
2022/05/14 00:22:52;;;;;;;12.32;4.35;;;;;;;11.49;68.96;101965.56;4967452;28;20053;-61
2022/05/14 00:25:19;;;;;;;9.60;3.95;;;;;;;11.46;68.85;101962.31;4967279;28;20113;-59
2022/05/14 00:27:46;;;;;;;12.00;5.47;;;;;;;11.44;68.74;101954.63;4982554;28;20026;-61
2022/05/14 00:30:13;;;;;;;9.38;4.30;;;;;;;11.46;68.41;101960.56;4988340;28;20033;-60
2022/05/14 00:32:40;;;;;;;10.05;4.10;;;;;;;11.35;68.81;101963.03;4990032;28;20069;-59
2022/05/14 00:35:06;;;;;;;9.77;4.38;;;;;;;11.38;68.57;101960.25;5000675;28;20026;-59
2022/05/14 00:37:32;;;;;;;9.77;4.10;;;;;;;11.32;68.75;101955.47;4993853;28;20061;-61
2022/05/14 00:39:57;;;;;;;12.20;3.70;;;;;;;11.33;68.86;101957.94;4983476;28;20122;-59
2022/05/14 00:42:23;;;;;;;9.60;3.65;;;;;;;11.32;68.27;101951.09;5004003;28;20025;-59
2022/05/14 00:44:48;;;;;;;9.10;3.40;;;;;;;11.23;68.39;101943.06;5005892;28;20034;-59
2022/05/14 00:47:16;;;;;;;11.23;3.65;;;;;;;11.13;67.85;101956.69;5005755;28;20137;-62
2022/05/14 00:49:42;;;;;;;13.10;4.00;;;;;;;11.21;67.95;101948.38;4996195;28;20050;-61
2022/05/14 00:52:13;;;;;;;8.88;3.42;;;;;;;11.01;68.67;101944.50;5004443;28;20116;-62
2022/05/14 00:54:46;;;;;;;8.57;3.45;;;;;;;10.99;69.00;101948.97;5006292;28;20065;-64
2022/05/14 00:57:16;;;;;;;10.02;3.70;;;;;;;11.05;68.88;101947.72;5005524;28;20092;-59
2022/05/14 00:59:41;;;;;;;9.43;3.60;;;;;;;10.89;68.77;101934.91;5004433;28;20033;-60
2022/05/14 01:02:07;;;;;;;10.05;4.07;;;;;;;10.92;68.24;101924.34;5004561;28;20042;-64
2022/05/14 01:04:33;;;;;;;8.73;3.67;;;;;;;10.95;68.39;101931.91;4985981;28;20038;-59
2022/05/14 01:07:11;;;;;;;9.98;3.97;;;;;;;10.98;68.66;101936.91;4986692;28;20464;-62
2022/05/14 01:09:39;;;;;;;10.13;3.93;;;;;;;10.93;68.76;101938.16;4990720;28;20044;-61
2022/05/14 01:12:07;;;;;;;8.95;3.90;;;;;;;10.95;68.13;101937.09;4968381;28;20037;-61
2022/05/14 01:14:33;;;;;;;9.32;3.45;;;;;;;10.83;69.04;101937.91;4994446;28;20022;-59
2022/05/14 01:16:58;;;;;;;9.25;3.28;;;;;;;10.82;68.19;101936.25;5005862;28;20581;-59
2022/05/14 01:19:24;;;;;;;9.50;3.85;;;;;;;10.77;69.21;101936.53;4985297;28;20046;-59
2022/05/14 01:22:16;;;;;;;10.90;3.70;;;;;;;10.82;68.81;101941.44;4986815;28;20030;-62
2022/05/14 01:27:49;;;;;;;9.90;3.43;;;;;;;10.78;68.78;101934.78;4986271;28;20056;-59
2022/05/14 01:30:16;;;;;;;10.18;3.63;;;;;;;10.73;69.27;101936.84;4985726;28;20458;-61
2022/05/14 01:32:44;;;;;;;9.48;3.38;;;;;;;10.69;68.61;101930.19;4986397;28;20070;-59
2022/05/14 01:35:09;;;;;;;8.80;3.58;;;;;;;10.74;68.39;101938.50;4985195;28;20034;-59
2022/05/14 01:37:36;;;;;;;9.48;3.80;;;;;;;10.77;69.46;101948.69;4986163;28;20030;-60
2022/05/14 01:40:02;;;;;;;9.77;3.97;;;;;;;10.74;68.75;101954.91;4985594;28;20045;-60
2022/05/14 01:42:27;;;;;;;9.23;3.55;;;;;;;10.63;69.51;101950.41;4996889;28;20026;-60
2022/05/14 01:44:53;;;;;;;10.25;3.67;;;;;;;10.67;69.97;101952.78;4988401;28;20065;-63
2022/05/14 01:47:18;;;;;;;9.48;3.72;;;;;;;10.58;70.16;101965.44;4994187;28;20538;-59
2022/05/14 01:49:43;;;;;;;10.27;3.88;;;;;;;10.60;70.53;101953.19;4989320;28;20022;-59
2022/05/14 01:52:09;;;;;;;8.25;3.45;;;;;;;10.29;70.20;101909.38;4988848;28;20064;-62
2022/05/14 01:54:34;;;;;;;12.63;4.22;;;;;;;10.59;70.12;101956.72;4989617;28;20030;-59
2022/05/14 01:57:00;;;;;;;11.10;3.90;;;;;;;10.67;70.18;101958.84;4988704;28;20542;-60
2022/05/14 01:59:26;;;;;;;7.95;4.13;;;;;;;10.53;69.93;101951.91;4971125;28;20072;-63
2022/05/14 02:01:51;;;;;;;11.20;3.97;;;;;;;10.49;70.27;101959.97;4988427;28;20108;-59
2022/05/14 02:04:17;;;;;;;9.40;3.80;;;;;;;10.50;70.13;101957.31;4988419;28;20061;-64
2022/05/14 02:06:43;;;;;;;10.48;4.10;;;;;;;10.43;70.27;101961.19;4989197;28;20033;-59
2022/05/14 02:09:11;;;;;;;10.38;3.88;;;;;;;10.48;69.59;101968.69;4988775;28;20038;-62
2022/05/14 02:11:39;;;;;;;10.20;4.20;;;;;;;10.43;70.54;101971.56;4988881;28;20046;-60
2022/05/14 02:14:05;;;;;;;8.90;3.53;;;;;;;10.47;70.27;101967.88;4988943;28;20325;-59
2022/05/14 02:16:30;;;;;;;8.35;4.15;;;;;;;10.42;69.94;101969.91;4988792;28;20030;-61
2022/05/14 02:18:55;;;;;;;8.75;3.88;;;;;;;10.42;69.63;101964.72;4981330;28;20022;-61
2022/05/14 02:21:24;;;;;;;10.02;4.00;;;;;;;10.46;69.72;101975.75;4988425;28;20090;-61
2022/05/14 02:23:51;;;;;;;12.00;4.03;;;;;;;10.41;70.19;101972.59;4988750;28;20033;-64
2022/05/14 02:26:17;;;;;;;10.30;4.20;;;;;;;10.27;69.77;101965.69;4988546;28;20037;-61
2022/05/14 02:28:42;;;;;;;7.85;3.92;;;;;;;10.40;70.12;101971.78;4988944;28;20026;-60
2022/05/14 02:31:08;;;;;;;9.90;3.90;;;;;;;10.33;70.42;101957.53;4984865;28;20585;-60
2022/05/14 02:33:34;;;;;;;10.55;4.10;;;;;;;10.27;70.48;101950.16;4969009;28;20481;-63
2022/05/14 02:36:00;;;;;;;9.68;4.10;;;;;;;10.30;70.37;101965.50;4979465;28;20363;-61
2022/05/14 02:38:28;;;;;;;10.50;4.30;;;;;;;10.30;70.16;101965.50;4970536;28;20161;-59
2022/05/14 02:40:53;;;;;;;10.18;4.25;;;;;;;10.30;70.43;101970.69;4988385;28;20622;-63
2022/05/14 02:43:19;;;;;;;9.15;4.25;;;;;;;10.33;70.23;101970.50;5006514;28;20033;-59
2022/05/14 02:45:44;;;;;;;9.43;4.13;;;;;;;10.19;70.26;101960.94;4990838;28;20037;-59
2022/05/14 02:48:11;;;;;;;10.70;4.38;;;;;;;10.18;70.55;101971.41;4992503;28;20254;-59
2022/05/14 02:50:37;;;;;;;8.70;4.22;;;;;;;10.14;70.79;101975.09;5007933;28;20045;-64
2022/05/14 02:53:03;;;;;;;9.15;4.50;;;;;;;10.21;70.74;101976.44;4977183;28;20482;-59
2022/05/14 02:55:30;;;;;;;9.52;4.22;;;;;;;10.16;70.40;101984.47;4987477;28;20042;-59
2022/05/14 02:57:56;;;;;;;9.05;4.07;;;;;;;10.02;70.54;101977.53;4988024;28;20093;-59
2022/05/14 03:00:21;;;;;;;13.57;4.85;;;;;;;10.15;70.57;101976.78;4987311;28;20113;-59
2022/05/14 03:02:47;;;;;;;11.02;4.72;;;;;;;10.02;71.20;101980.13;4987878;28;20057;-60
2022/05/14 03:05:15;;;;;;;11.25;4.65;;;;;;;9.93;72.05;101972.91;4987446;28;20022;-59
2022/05/14 03:07:41;;;;;;;11.68;4.55;;;;;;;9.97;72.18;101971.78;4987948;28;20034;-59
2022/05/14 03:10:07;;;;;;;13.20;4.75;;;;;;;10.01;72.42;101968.09;4987588;28;20370;-62
2022/05/14 03:12:33;;;;;;;12.40;4.85;;;;;;;9.98;71.56;101965.69;4987844;28;20026;-59
2022/05/14 03:15:00;;;;;;;11.25;4.75;;;;;;;9.99;71.84;101964.78;4987356;28;20027;-60
2022/05/14 03:17:26;;;;;;;11.85;5.32;;;;;;;9.94;72.47;101968.56;4970087;28;20026;-59
2022/05/14 03:19:52;;;;;;;9.40;4.78;;;;;;;9.98;72.07;101970.88;4987775;28;20030;-59
2022/05/14 03:22:18;;;;;;;9.55;4.80;;;;;;;9.90;72.66;101967.91;4987049;28;20105;-60
2022/05/14 03:24:43;;;;;;;8.63;4.65;;;;;;;9.88;72.61;101969.78;4987994;28;20041;-59
2022/05/14 03:27:10;;;;;;;11.68;4.63;;;;;;;9.91;72.64;101963.56;4987271;28;20022;-59
2022/05/14 03:29:36;;;;;;;13.10;5.28;;;;;;;9.88;73.14;101968.94;4987544;28;20489;-59
2022/05/14 03:32:02;;;;;;;10.57;4.82;;;;;;;9.89;72.80;101961.06;4969868;28;20034;-59
2022/05/14 03:34:27;;;;;;;11.73;5.10;;;;;;;9.90;72.61;101962.72;4987363;28;20030;-60
2022/05/14 03:36:53;;;;;;;11.82;5.18;;;;;;;9.81;73.20;101973.66;4987639;28;20117;-64
2022/05/14 03:39:19;;;;;;;12.65;5.60;;;;;;;9.83;72.97;101966.63;4986578;28;20109;-60
2022/05/14 03:41:45;;;;;;;9.95;5.22;;;;;;;9.75;73.28;101968.84;4992568;28;20029;-63
2022/05/14 03:44:11;;;;;;;10.75;5.20;;;;;;;9.82;72.93;101959.78;4995108;28;20441;-59
2022/05/14 03:46:37;;;;;;;11.35;5.18;;;;;;;9.83;72.92;101958.84;4987473;28;20468;-59
2022/05/14 03:49:03;;;;;;;12.82;5.22;;;;;;;9.69;73.51;101956.22;4998826;28;20026;-59
2022/05/14 03:51:29;;;;;;;10.52;5.47;;;;;;;9.62;73.69;101958.34;4993613;28;20455;-60
2022/05/14 03:53:55;;;;;;;11.85;5.78;;;;;;;9.72;72.82;101969.00;4986921;28;20054;-59
2022/05/14 03:56:20;;;;;;;13.23;5.60;;;;;;;9.55;73.99;101968.25;4986968;28;20804;-59
2022/05/14 03:58:46;;;;;;;12.55;5.35;;;;;;;9.62;73.11;101952.34;4986919;28;20085;-59
2022/05/14 04:01:12;;;;;;;10.38;6.05;;;;;;;9.62;73.62;101967.88;4986210;28;20030;-64
2022/05/14 04:03:38;;;;;;;11.52;5.50;;;;;;;9.55;74.01;101968.25;4987158;28;20023;-59
2022/05/14 04:06:05;;;;;;;14.82;5.70;;;;;;;9.69;74.02;101964.00;4969523;28;20419;-60
2022/05/14 04:08:30;;;;;;;12.75;5.60;;;;;;;9.65;73.63;101958.19;4985848;28;20030;-61
2022/05/14 04:10:56;;;;;;;12.23;6.13;;;;;;;9.65;73.62;101962.53;4986830;28;20045;-60
2022/05/14 04:13:22;;;;;;;13.65;6.28;;;;;;;9.29;74.29;101922.38;4986714;28;20042;-61
2022/05/14 04:15:48;;;;;;;12.10;5.88;;;;;;;9.62;74.09;101967.88;4969273;28;20927;-60
2022/05/14 04:18:13;;;;;;;10.30;5.93;;;;;;;9.58;73.88;101962.91;4986488;28;20034;-59
2022/05/14 04:20:40;;;;;;;13.10;6.15;;;;;;;9.50;74.21;101954.75;4986451;28;20057;-61
2022/05/14 04:23:07;;;;;;;12.73;6.35;;;;;;;9.45;74.62;101961.94;4986737;28;20030;-61
2022/05/14 04:25:33;;;;;;;13.98;6.97;;;;;;;9.51;74.72;101977.13;4986934;28;20359;-59
2022/05/14 04:27:59;;;;;;;12.30;6.50;;;;;;;9.54;74.35;101969.19;4986514;28;20105;-60
2022/05/14 04:30:25;;;;;;;13.70;6.43;;;;;;;9.49;74.93;101983.31;4986455;28;20105;-59
2022/05/14 04:32:50;;;;;;;13.63;6.60;;;;;;;9.45;74.81;101977.47;4986675;28;20101;-59
2022/05/14 04:35:16;;;;;;;13.25;7.03;;;;;;;9.52;74.89;101983.16;4968224;28;20026;-59
2022/05/14 04:37:41;;;;;;;11.93;7.05;;;;;;;9.46;75.03;101981.75;4986375;28;20034;-59
2022/05/14 04:40:09;;;;;;;11.88;6.88;;;;;;;9.53;74.44;101990.84;4986238;28;20077;-60
2022/05/14 04:42:36;;;;;;;13.65;7.15;;;;;;;9.50;75.09;101983.22;4980907;28;20108;-59
2022/05/14 04:45:02;;;;;;;15.70;7.78;;;;;;;9.57;75.53;101986.28;4986281;28;20455;-59
2022/05/14 04:47:28;;;;;;;13.20;7.50;;;;;;;9.51;75.71;101994.41;4985921;28;20510;-64
2022/05/14 04:49:53;;;;;;;13.25;7.57;;;;;;;9.57;74.55;101994.88;5005095;28;20021;-59
2022/05/14 04:52:18;;;;;;;13.68;7.72;;;;;;;9.61;74.86;101997.31;4987436;28;20061;-59
2022/05/14 04:54:44;;;;;;;13.13;7.53;;;;;;;9.58;75.11;102004.34;4986446;28;20518;-60
2022/05/14 04:57:09;;;;;;;13.38;8.10;;;;;;;9.56;75.67;102006.16;4966761;28;20130;-60
2022/05/14 04:59:38;;;;;;;14.20;7.55;;;;;;;9.53;75.82;101996.00;4985748;28;20022;-61
2022/05/14 05:04:48;;;;;;;14.48;8.82;;;;;;;9.42;76.13;101982.84;4986591;28;20154;-59
2022/05/14 05:07:13;;;;;;;15.35;8.80;;;;;;;9.61;75.77;102007.66;4985814;28;20125;-61
2022/05/14 05:09:39;;;;;;;15.35;9.75;;;;;;;9.57;76.98;102018.19;4968728;28;20382;-58
2022/05/14 05:12:05;;;;;;;15.27;9.00;;;;;;;9.67;76.31;102008.13;4986065;28;20053;-60
2022/05/14 05:14:30;;;;;;;16.92;9.93;;;;;;;9.68;76.30;102008.97;4985805;28;20038;-59
2022/05/14 05:16:57;;;;;;;14.48;9.35;;;;;;;9.67;77.01;101997.78;4986655;28;20477;-60
2022/05/14 05:19:23;;;;;;;18.45;10.30;;;;;;;9.71;77.09;102009.63;4987044;28;20025;-59
2022/05/14 05:21:49;;;;;;;19.35;10.43;;;;;;;9.75;76.58;102010.31;4977774;28;20039;-65
2022/05/14 05:24:15;;;;;;;16.75;10.55;;;;;;;9.83;77.41;102027.03;4953028;28;20064;-62
2022/05/14 05:26:40;;;;;;;18.10;10.75;;;;;;;9.86;77.34;102028.59;4984233;28;20447;-61
2022/05/14 05:29:06;;;;;;;16.90;11.02;;;;;;;9.90;77.62;102014.56;4990256;28;20390;-62
2022/05/14 05:31:34;;;;;;;15.80;11.13;;;;;;;9.97;77.13;102015.84;4989897;28;20441;-60
2022/05/14 05:34:00;;;;;;;20.98;12.00;;;;;;;9.95;77.25;102012.53;4990137;28;20081;-59
2022/05/14 05:36:25;;;;;;;18.98;11.75;;;;;;;10.04;77.44;102027.53;4989958;28;20034;-60
2022/05/14 05:38:51;;;;;;;17.70;12.50;;;;;;;10.11;77.85;102028.81;4989871;28;20034;-60
2022/05/14 05:41:20;;;;;;;19.95;12.55;;;;;;;10.16;77.54;102030.31;4991265;28;20501;-60
2022/05/14 05:43:46;;;;;;;19.02;12.82;;;;;;;10.18;78.13;102031.03;4996594;28;20574;-64
2022/05/14 05:46:12;;;;;;;19.00;12.55;;;;;;;10.24;77.60;102017.72;4989141;28;20077;-60
2022/05/14 05:48:38;;;;;;;17.67;12.20;;;;;;;10.39;77.67;102041.91;4991924;28;20467;-65
2022/05/14 05:51:04;;;;;;;20.42;13.57;;;;;;;10.40;77.90;102044.41;4989527;28;20034;-60
2022/05/14 05:58:59;;;;;;;20.10;13.50;;;;;;;10.66;78.02;102039.34;4988037;28;20077;-61
2022/05/14 06:01:24;;;;;;;19.17;14.25;;;;;;;10.74;77.95;102053.53;4985758;28;20038;-59
2022/05/14 06:03:51;;;;;;;18.75;14.50;;;;;;;10.83;77.92;102036.53;4988368;28;20572;-60
2022/05/14 06:06:17;;;;;;;20.58;13.93;;;;;;;10.97;77.62;102056.44;4989084;28;20026;-63
2022/05/14 06:08:43;;;;;;;20.10;14.95;;;;;;;10.96;79.13;102053.00;4989395;28;20049;-63
2022/05/14 06:11:08;;;;;;;23.05;15.20;;;;;;;11.15;77.53;102058.69;4988497;28;20045;-62
2022/05/14 06:13:34;;;;;;;24.55;15.88;;;;;;;11.14;78.99;102046.63;4968037;28;20030;-59
2022/05/14 06:16:00;;;;;;;22.33;15.95;;;;;;;11.32;78.38;102054.16;4988065;28;20027;-59
2022/05/14 06:18:26;;;;;;;21.35;14.35;;;;;;;11.45;77.34;102055.00;4988811;28;20049;-61
2022/05/14 06:20:52;;;;;;;24.88;15.48;;;;;;;11.43;77.73;102049.94;4989055;28;20033;-61
2022/05/14 06:23:17;;;;;;;23.05;15.35;;;;;;;11.52;77.78;102048.47;4988954;28;20026;-61
2022/05/14 06:25:43;;;;;;;21.95;15.48;;;;;;;11.63;77.98;102053.78;4982786;28;20458;-60
2022/05/14 06:28:08;;;;;;;23.73;15.75;;;;;;;11.65;78.05;102051.94;4988333;28;20026;-63
2022/05/14 06:30:35;;;;;;;23.23;16.40;;;;;;;11.77;77.77;102039.06;4987249;28;20091;-59
2022/05/14 06:33:05;;;;;;;25.48;15.82;;;;;;;11.75;78.46;102051.31;4987905;28;20470;-60
2022/05/14 06:35:32;;;;;;;23.02;16.20;;;;;;;11.92;77.67;102054.47;4988007;28;20038;-60
2022/05/14 06:37:58;;;;;;;24.60;15.85;;;;;;;11.87;77.83;102053.13;4986732;28;20033;-63
2022/05/14 06:40:23;;;;;;;24.50;16.02;;;;;;;12.03;77.65;102056.34;4988232;28;20465;-59
2022/05/14 06:42:49;;;;;;;22.92;15.57;;;;;;;12.19;77.58;102056.97;5002813;28;20109;-59
2022/05/14 06:45:14;;;;;;;24.83;16.13;;;;;;;12.28;78.16;102062.50;4989138;28;20366;-60
2022/05/14 06:47:39;;;;;;;25.40;15.30;;;;;;;12.38;76.35;102071.31;4981509;28;20034;-62
2022/05/14 06:50:05;;;;;;;25.50;15.52;;;;;;;12.34;76.68;102049.06;5008266;28;20099;-60
2022/05/14 06:52:31;;;;;;;25.98;16.13;;;;;;;12.51;78.13;102061.72;4989947;28;20034;-59
2022/05/14 06:54:59;;;;;;;20.98;15.32;;;;;;;12.49;77.13;102053.19;4988085;28;20027;-61
2022/05/14 06:57:24;;;;;;;26.33;15.32;;;;;;;12.69;76.49;102070.84;4987843;28;20037;-60
2022/05/14 06:59:50;;;;;;;22.45;14.50;;;;;;;12.77;76.20;102073.72;4988282;28;20034;-62
2022/05/14 07:02:17;;;;;;;25.83;16.25;;;;;;;12.77;76.21;102073.72;4987119;28;20128;-60
2022/05/14 07:07:27;;;;;;;21.85;15.07;;;;;;;12.99;75.49;102066.97;4987994;28;20117;-61
2022/05/14 07:09:54;;;;;;;23.75;15.60;;;;;;;13.03;75.98;102068.44;4988280;28;20109;-61
2022/05/14 07:12:19;;;;;;;26.23;15.55;;;;;;;13.05;76.16;102061.34;4987703;28;20014;-59
2022/05/14 07:14:45;;;;;;;25.17;14.88;;;;;;;13.26;75.59;102053.78;4987485;28;20440;-59
2022/05/14 07:17:11;;;;;;;22.50;15.68;;;;;;;13.20;75.43;102060.22;4970044;28;20030;-60
2022/05/14 07:19:40;;;;;;;25.30;15.63;;;;;;;13.49;74.86;102059.91;4987847;28;20395;-60
2022/05/14 07:22:06;;;;;;;22.75;14.55;;;;;;;13.57;75.69;102073.19;4987317;28;20059;-59
2022/05/14 07:24:32;;;;;;;21.40;14.82;;;;;;;13.49;74.49;102070.31;4987528;28;20026;-59
2022/05/14 07:27:00;;;;;;;24.05;15.18;;;;;;;13.80;73.81;102072.28;4987683;28;20121;-62
2022/05/14 07:29:27;;;;;;;25.27;15.43;;;;;;;13.81;73.77;102066.13;4967778;28;20038;-60
2022/05/14 07:31:53;;;;;;;22.52;14.23;;;;;;;14.20;72.58;102079.69;4975360;28;20036;-60
2022/05/14 07:34:20;;;;;;;20.92;14.45;;;;;;;14.16;73.05;102080.84;4987231;28;20438;-59
2022/05/14 07:36:51;;;;;;;23.35;14.43;;;;;;;13.93;72.28;102074.78;4987014;28;20495;-59
2022/05/14 07:39:19;;;;;;;24.58;15.05;;;;;;;14.03;73.27;102074.94;4987519;28;20026;-65
2022/05/14 07:41:48;;;;;;;21.88;14.63;;;;;;;14.10;73.03;102083.94;4987622;28;20061;-60
2022/05/14 07:44:16;;;;;;;20.75;14.43;;;;;;;14.18;72.36;102089.41;4969166;28;20493;-60
2022/05/14 07:46:47;;;;;;;23.27;14.38;;;;;;;14.35;71.86;102081.13;4987189;28;20121;-60
2022/05/14 07:49:14;;;;;;;24.58;15.50;;;;;;;14.44;72.33;102084.78;5000384;28;20097;-59
2022/05/14 07:51:40;;;;;;;25.15;14.80;;;;;;;14.62;72.47;102092.97;5003252;28;20022;-61
2022/05/14 07:54:06;;;;;;;20.75;13.60;;;;;;;14.85;71.42;102078.97;4987220;28;20054;-60
2022/05/14 07:56:32;;;;;;;23.58;14.52;;;;;;;14.68;71.38;102058.59;4985932;28;20378;-61
2022/05/14 07:58:58;;;;;;;26.02;14.95;;;;;;;14.91;71.40;102089.84;4987665;28;20105;-59
2022/05/14 08:01:24;;;;;;;23.35;14.32;;;;;;;14.97;70.77;102092.00;4987075;28;20153;-62
2022/05/14 08:03:50;;;;;;;19.35;14.32;;;;;;;14.99;70.77;102095.31;4987100;28;20031;-60
2022/05/14 08:06:17;;;;;;;24.65;14.23;;;;;;;15.07;70.21;102098.13;4968022;28;20027;-61
2022/05/14 08:08:43;;;;;;;25.15;14.43;;;;;;;15.08;69.35;102084.97;4967525;28;20038;-63
2022/05/14 08:11:09;;;;;;;21.42;13.30;;;;;;;15.22;69.77;102091.66;4986169;28;20463;-61
2022/05/14 08:13:35;;;;;;;21.38;13.88;;;;;;;15.43;70.21;102088.28;4986771;28;20493;-60
2022/05/14 08:16:02;;;;;;;22.23;13.90;;;;;;;15.37;68.07;102095.66;4969085;28;20065;-60
2022/05/14 08:18:28;;;;;;;23.80;14.55;;;;;;;15.26;68.16;102066.94;4984822;28;20394;-62
2022/05/14 08:20:53;;;;;;;20.95;14.40;;;;;;;15.44;68.75;102084.69;4967337;28;20027;-62
2022/05/14 08:26:04;;;;;;;22.17;14.02;;;;;;;15.79;68.04;102090.47;4967146;28;20048;-60
2022/05/14 08:28:29;;;;;;;20.55;13.25;;;;;;;15.83;67.45;102085.84;4967137;28;20109;-60
2022/05/14 08:30:56;;;;;;;21.10;13.50;;;;;;;15.89;67.93;102080.91;4967409;28;20622;-60
2022/05/14 08:33:22;;;;;;;20.85;13.00;;;;;;;16.03;67.06;102081.53;4984115;28;20133;-60
2022/05/14 08:35:47;;;;;;;22.55;13.55;;;;;;;16.04;67.18;102093.66;4969632;28;20031;-60
2022/05/14 08:38:15;;;;;;;23.25;13.10;;;;;;;16.06;66.53;102096.97;4966724;28;20045;-60
2022/05/14 08:40:55;;;;;;;20.10;12.48;;;;;;;16.18;66.35;102101.16;4982080;28;20065;-59
2022/05/14 08:43:58;;;;;;;20.80;12.98;;;;;;;16.19;65.41;102097.59;4988803;28;20034;-63
2022/05/14 08:46:25;;;;;;;23.13;12.98;;;;;;;16.24;66.49;102090.16;4979906;28;20034;-60
2022/05/14 08:49:04;;;;;;;22.25;13.55;;;;;;;16.31;66.21;102096.53;4987650;28;20483;-59
2022/05/14 08:51:33;;;;;;;22.38;12.68;;;;;;;16.32;66.38;102092.94;4982768;28;20034;-60
2022/05/14 08:54:00;;;;;;;21.38;12.38;;;;;;;16.58;65.61;102082.03;4983727;28;20082;-59
2022/05/14 08:56:38;;;;;;;20.73;12.27;;;;;;;16.73;65.94;102096.41;4970880;28;20022;-59
2022/05/14 08:59:09;;;;;;;20.77;12.10;;;;;;;16.81;64.47;102093.97;4971079;28;20037;-60
2022/05/14 09:01:39;;;;;;;19.83;11.68;;;;;;;16.75;63.92;102088.44;4972025;28;20031;-59
2022/05/14 09:04:08;;;;;;;24.55;13.23;;;;;;;17.09;64.26;102086.25;4992875;28;20026;-60
2022/05/14 09:06:35;;;;;;;23.70;12.45;;;;;;;17.34;63.01;102096.22;4990055;28;20117;-60
2022/05/14 09:09:00;;;;;;;20.60;10.70;;;;;;;17.56;61.87;102100.38;4985723;28;20033;-63
2022/05/14 09:11:48;;;;;;;18.23;10.65;;;;;;;17.71;60.32;102095.50;4969833;28;20015;-60
2022/05/14 09:14:21;;;;;;;21.97;11.10;;;;;;;17.59;61.95;102083.50;4964466;28;20044;-63
2022/05/14 09:16:50;;;;;;;16.50;10.70;;;;;;;17.65;60.78;102094.25;4976579;28;20388;-64
2022/05/14 09:19:18;;;;;;;20.50;11.63;;;;;;;17.65;60.89;102098.69;4989884;28;20036;-60
2022/05/14 09:21:57;;;;;;;21.00;11.32;;;;;;;17.80;60.80;102092.06;4989972;28;20030;-59
2022/05/14 09:24:26;;;;;;;20.42;10.65;;;;;;;18.26;59.52;102098.28;4972315;28;20476;-60
2022/05/14 09:27:06;;;;;;;18.67;10.75;;;;;;;18.29;58.51;102088.34;4989916;28;20097;-60
2022/05/14 09:29:35;;;;;;;16.35;8.50;;;;;;;18.36;56.47;102093.81;4983605;28;20049;-60
2022/05/14 09:32:11;;;;;;;17.52;8.63;;;;;;;18.49;57.61;102091.69;4989844;28;20601;-60
2022/05/14 09:34:37;;;;;;;20.17;10.52;;;;;;;18.49;58.76;102077.72;4990022;28;20045;-59
2022/05/14 09:37:16;;;;;;;21.92;10.45;;;;;;;18.59;58.52;102094.25;4989399;28;20391;-62
2022/05/14 09:39:41;;;;;;;17.20;9.32;;;;;;;18.57;57.00;102088.31;4989785;28;20215;-59
2022/05/14 09:42:24;;;;;;;16.73;8.63;;;;;;;18.76;57.71;102095.31;4997410;28;20026;-59
2022/05/14 09:44:52;;;;;;;17.75;8.20;;;;;;;18.71;56.37;102097.56;5009300;28;20494;-61
2022/05/14 09:47:25;;;;;;;17.23;8.15;;;;;;;18.69;55.34;102094.22;4994059;28;20502;-60
2022/05/14 09:50:18;;;;;;;17.42;7.28;;;;;;;18.86;57.48;102093.41;4986624;28;20442;-59
2022/05/14 09:52:57;;;;;;;13.65;6.00;;;;;;;18.91;55.13;102099.06;4989217;28;20446;-60
2022/05/14 09:55:33;;;;;;;12.85;5.25;;;;;;;18.71;52.34;102097.56;4983782;28;20043;-62
2022/05/14 09:58:15;;;;;;;14.35;6.32;;;;;;;18.63;51.45;102089.53;4982022;28;20122;-60
2022/05/14 10:01:04;;;;;;;15.57;5.75;;;;;;;19.11;52.58;102086.63;4974640;28;20025;-60
2022/05/14 10:03:59;;;;;;;13.20;4.97;;;;;;;19.26;52.76;102092.16;4984841;28;20509;-61
2022/05/14 10:06:35;;;;;;;13.38;5.30;;;;;;;19.20;52.41;102090.97;4985564;28;20022;-64
2022/05/14 10:09:10;;;;;;;15.40;6.28;;;;;;;19.23;50.65;102097.75;4983869;28;20038;-60
2022/05/14 10:11:44;;;;;;;15.60;6.60;;;;;;;19.51;51.16;102094.03;4986505;28;20030;-60
2022/05/14 10:14:25;;;;;;;16.45;7.82;;;;;;;19.43;51.49;102096.59;4987826;28;20080;-61
2022/05/14 10:17:05;;;;;;;16.77;8.50;;;;;;;19.32;52.01;102102.06;4988939;28;20319;-61
2022/05/14 10:19:49;;;;;;;15.20;7.25;;;;;;;19.54;52.33;102096.34;4987816;28;20035;-61
2022/05/14 10:26:44;;;;;;;15.38;7.95;;;;;;;19.35;51.47;102081.56;4972365;28;20026;-61
2022/05/14 10:28:18;;;;;;;14.27;6.82;;;;;;;19.78;53.13;102092.25;4988950;28;20045;-60
2022/05/14 10:31:21;;;;;;;17.58;8.40;;;;;;;19.68;53.23;102088.94;4989135;28;20045;-60
2022/05/14 10:33:51;;;;;;;16.00;7.97;;;;;;;19.88;52.40;102087.72;4988489;28;20042;-60
2022/05/14 10:36:26;;;;;;;20.38;8.65;;;;;;;20.25;52.26;102078.72;4988629;28;20038;-60
2022/05/14 10:39:07;;;;;;;15.68;8.13;;;;;;;20.55;50.83;102086.09;4988546;28;20033;-61
2022/05/14 10:41:41;;;;;;;16.52;7.65;;;;;;;20.66;50.59;102087.63;4989344;28;20053;-61
2022/05/14 10:44:17;;;;;;;13.93;6.78;;;;;;;20.40;50.64;102085.84;4987467;28;20053;-65
2022/05/14 10:46:44;;;;;;;13.68;5.85;;;;;;;20.55;47.44;102078.19;4984470;28;20030;-59
2022/05/14 10:49:13;;;;;;;12.32;5.95;;;;;;;20.25;49.97;102095.34;4986684;28;20070;-60
2022/05/14 10:51:51;;;;;;;13.02;5.40;;;;;;;20.41;50.51;102089.28;4982269;28;20493;-62
2022/05/14 10:54:23;;;;;;;13.27;5.85;;;;;;;20.48;49.12;102087.72;4979420;28;20062;-59
2022/05/14 10:56:54;;;;;;;14.27;6.40;;;;;;;20.23;46.55;102085.94;4971201;28;20402;-60
2022/05/14 10:59:33;;;;;;;12.57;5.93;;;;;;;20.89;49.11;102078.13;4985219;28;20030;-59
2022/05/14 11:02:06;;;;;;;13.85;6.32;;;;;;;20.76;47.58;102088.31;4981510;28;20050;-60
2022/05/14 11:04:42;;;;;;;15.38;6.88;;;;;;;20.94;48.56;102088.19;4967999;28;20033;-60
2022/05/14 11:07:28;;;;;;;14.75;7.18;;;;;;;21.02;48.56;102092.63;4968585;28;20031;-61
2022/05/14 11:09:54;;;;;;;13.15;6.60;;;;;;;20.90;46.79;102081.56;4987790;28;20077;-61
2022/05/14 11:12:19;;;;;;;13.57;6.55;;;;;;;20.94;45.24;102085.53;4970317;28;20031;-60
2022/05/14 11:14:47;;;;;;;15.43;6.43;;;;;;;20.75;46.02;102091.91;4968531;28;20112;-60
2022/05/14 11:17:17;;;;;;;13.00;6.15;;;;;;;20.64;46.77;102094.84;4967349;28;20328;-62
2022/05/14 11:19:43;;;;;;;12.63;5.65;;;;;;;20.90;47.93;102084.22;4985902;28;20026;-62
2022/05/14 11:22:23;;;;;;;13.18;5.43;;;;;;;21.17;45.15;102081.28;4987475;28;20086;-61
2022/05/14 11:24:50;;;;;;;16.05;6.28;;;;;;;21.13;45.14;102087.88;4987907;28;20313;-60
2022/05/14 11:27:32;;;;;;;17.15;6.50;;;;;;;21.32;46.28;102083.28;4975517;28;20115;-62
2022/05/14 11:30:03;;;;;;;14.23;6.35;;;;;;;21.15;44.30;102099.06;4968774;28;20729;-60
2022/05/14 11:32:40;;;;;;;12.57;7.00;;;;;;;21.08;46.47;102092.81;4970064;28;20057;-60
2022/05/14 11:35:06;;;;;;;36.90;25.02;;;;;;;21.16;46.12;102082.28;4979531;28;20101;-62
2022/05/14 11:37:43;;;;;;;100.28;66.57;;;;;;;21.20;44.51;102075.66;4970364;28;20161;-59
2022/05/14 11:40:26;;;;;;;25.13;12.45;;;;;;;21.06;45.20;102100.06;4966635;28;20031;-60
2022/05/14 11:43:22;;;;;;;14.85;6.45;;;;;;;21.09;46.35;102098.91;4997422;28;20036;-60
2022/05/14 11:46:02;;;;;;;13.25;5.93;;;;;;;20.97;45.33;102085.19;4987786;28;20030;-60